Time;durP1;ratioP1;P1;durP2;ratioP2;P2;SDS_P1;SDS_P2;PMS_P1;PMS_P2;Temp;Humidity;BMP_temperature;BMP_pressure;BME280_temperature;BME280_humidity;BME280_pressure;Samples;Min_cycle;Max_cycle;Signal;HPM_P1;HPM_P2
2023/07/16 00:00:19;;;;;;;29.33;14.57;;;;;;;;;;5113437;28;20193;-76
2023/07/16 00:02:46;;;;;;;25.17;13.67;;;;;;;;;;5112820;28;20678;-77
2023/07/16 00:05:13;;;;;;;23.20;14.30;;;;;;;;;;5113677;28;20205;-76
2023/07/16 00:07:41;;;;;;;28.80;14.70;;;;;;;;;;5113299;28;20281;-76
2023/07/16 00:10:08;;;;;;;28.10;14.80;;;;;;;;;;5113108;28;20310;-76
2023/07/16 00:12:36;;;;;;;24.50;14.23;;;;;;;;;;5113251;28;20201;-77
2023/07/16 00:15:04;;;;;;;24.13;13.53;;;;;;;;;;5113735;28;20616;-77
2023/07/16 00:17:32;;;;;;;22.27;13.23;;;;;;;;;;5132899;27;20197;-77
2023/07/16 00:19:59;;;;;;;32.03;14.30;;;;;;;;;;5133569;27;20193;-76
2023/07/16 00:22:26;;;;;;;23.37;13.20;;;;;;;;;;5133317;27;20193;-76
2023/07/16 00:24:53;;;;;;;22.90;12.27;;;;;;;;;;5133733;27;20202;-76
2023/07/16 00:27:21;;;;;;;25.63;12.50;;;;;;;;;;5133245;27;20197;-77
2023/07/16 00:29:49;;;;;;;26.70;12.87;;;;;;;;;;5133409;27;20619;-78
2023/07/16 00:32:16;;;;;;;24.90;12.17;;;;;;;;;;5132730;27;20262;-78
2023/07/16 00:34:44;;;;;;;24.83;12.60;;;;;;;;;;5133300;27;20189;-76
2023/07/16 00:37:11;;;;;;;23.80;12.10;;;;;;;;;;5133624;27;20222;-76
2023/07/16 00:39:38;;;;;;;21.97;11.33;;;;;;;;;;5133400;27;20854;-76
2023/07/16 00:42:06;;;;;;;27.53;11.80;;;;;;;;;;5133238;27;20190;-78
2023/07/16 00:44:33;;;;;;;24.27;11.57;;;;;;;;;;5132886;27;20219;-76
2023/07/16 00:47:02;;;;;;;25.20;11.50;;;;;;;;;;5132847;27;20334;-77
2023/07/16 00:49:29;;;;;;;24.57;11.30;;;;;;;;;;5132873;27;20684;-77
2023/07/16 00:51:56;;;;;;;25.00;11.50;;;;;;;;;;5132397;27;20256;-76
2023/07/16 00:54:24;;;;;;;24.87;11.07;;;;;;;;;;5132909;27;20292;-76
2023/07/16 00:56:51;;;;;;;22.80;10.93;;;;;;;;;;5133079;27;20628;-75
2023/07/16 00:59:18;;;;;;;25.63;11.10;;;;;;;;;;5132808;27;20233;-76
2023/07/16 01:01:45;;;;;;;26.17;11.60;;;;;;;;;;5132565;27;20240;-76
2023/07/16 01:04:14;;;;;;;21.80;11.17;;;;;;;;;;5132876;27;20292;-76
2023/07/16 01:06:42;;;;;;;26.67;10.73;;;;;;;;;;5132625;27;20288;-77
2023/07/16 01:09:12;;;;;;;25.10;10.43;;;;;;;;;;5132500;27;20259;-76
2023/07/16 01:11:40;;;;;;;24.63;10.90;;;;;;;;;;5132670;27;20622;-75
2023/07/16 01:14:08;;;;;;;27.07;10.53;;;;;;;;;;5132669;27;20293;-77
2023/07/16 01:16:36;;;;;;;23.63;11.63;;;;;;;;;;5132502;27;20284;-77
2023/07/16 01:19:03;;;;;;;22.33;10.07;;;;;;;;;;5132456;27;20296;-76
2023/07/16 01:21:36;;;;;;;20.97;10.47;;;;;;;;;;5132779;27;20325;-76
2023/07/16 01:24:13;;;;;;;28.13;10.93;;;;;;;;;;5132464;27;20730;-75
2023/07/16 01:26:53;;;;;;;24.67;11.00;;;;;;;;;;5132327;27;20279;-76
2023/07/16 01:29:30;;;;;;;24.00;11.40;;;;;;;;;;5131720;27;20228;-77
2023/07/16 01:31:57;;;;;;;19.70;10.83;;;;;;;;;;5132112;27;20720;-77
2023/07/16 01:34:26;;;;;;;24.57;9.90;;;;;;;;;;5132448;28;20284;-77
2023/07/16 01:36:53;;;;;;;25.27;10.77;;;;;;;;;;5132243;28;20221;-76
2023/07/16 01:39:20;;;;;;;24.43;10.17;;;;;;;;;;5132310;27;20217;-76
2023/07/16 01:41:47;;;;;;;24.20;11.13;;;;;;;;;;5132245;27;20545;-77
2023/07/16 01:44:15;;;;;;;28.20;11.27;;;;;;;;;;5131956;27;20998;-77
2023/07/16 01:46:43;;;;;;;25.90;10.87;;;;;;;;;;5131965;28;20701;-77
2023/07/16 01:49:10;;;;;;;26.53;10.23;;;;;;;;;;5132059;27;20217;-77
2023/07/16 01:51:37;;;;;;;23.87;10.53;;;;;;;;;;5132014;28;20312;-76
2023/07/16 01:54:05;;;;;;;25.90;10.37;;;;;;;;;;5132095;28;20250;-77
2023/07/16 01:56:33;;;;;;;24.97;10.10;;;;;;;;;;5132599;28;20196;-78
2023/07/16 01:59:00;;;;;;;19.17;9.87;;;;;;;;;;5132525;28;20192;-77
2023/07/16 02:01:27;;;;;;;25.70;10.37;;;;;;;;;;5132008;27;20281;-77
2023/07/16 02:03:56;;;;;;;22.83;10.57;;;;;;;;;;5132006;28;20224;-78
2023/07/16 02:06:23;;;;;;;22.20;10.20;;;;;;;;;;5132136;28;20691;-76
2023/07/16 02:08:50;;;;;;;20.97;10.13;;;;;;;;;;5131853;27;20653;-77
2023/07/16 02:11:17;;;;;;;30.13;10.27;;;;;;;;;;5132759;28;20285;-77
2023/07/16 02:13:44;;;;;;;23.80;9.60;;;;;;;;;;5131688;27;20280;-78
2023/07/16 02:16:11;;;;;;;26.00;9.67;;;;;;;;;;5131680;28;20283;-77
2023/07/16 02:18:38;;;;;;;22.20;9.77;;;;;;;;;;5131602;28;20189;-77
2023/07/16 02:21:07;;;;;;;26.60;10.37;;;;;;;;;;5131662;27;20205;-76
2023/07/16 02:23:34;;;;;;;25.33;10.10;;;;;;;;;;5131937;27;20230;-77
2023/07/16 02:26:02;;;;;;;25.00;10.47;;;;;;;;;;5131645;28;20699;-77
2023/07/16 02:28:29;;;;;;;24.03;10.40;;;;;;;;;;5131729;28;20732;-76
2023/07/16 02:30:56;;;;;;;29.37;10.07;;;;;;;;;;5131694;27;20311;-76
2023/07/16 02:33:23;;;;;;;25.73;9.57;;;;;;;;;;5131535;27;20193;-77
2023/07/16 02:35:52;;;;;;;22.80;9.70;;;;;;;;;;5132034;28;20240;-77
2023/07/16 02:38:20;;;;;;;26.60;9.93;;;;;;;;;;5131598;27;20649;-77
2023/07/16 02:40:48;;;;;;;24.23;9.47;;;;;;;;;;5135146;27;20224;-77
2023/07/16 02:43:15;;;;;;;30.67;9.87;;;;;;;;;;5134981;27;20693;-77
2023/07/16 02:45:43;;;;;;;22.43;9.50;;;;;;;;;;5135256;27;20200;-78
2023/07/16 02:48:10;;;;;;;24.23;9.83;;;;;;;;;;5135188;27;20236;-77
2023/07/16 02:50:37;;;;;;;27.27;9.80;;;;;;;;;;5134671;27;20251;-76
2023/07/16 02:53:05;;;;;;;23.20;9.50;;;;;;;;;;5135389;27;20193;-77
2023/07/16 02:55:34;;;;;;;21.77;9.33;;;;;;;;;;5128179;27;20278;-76
2023/07/16 02:58:04;;;;;;;18.70;8.57;;;;;;;;;;5123768;27;20255;-76
2023/07/16 03:00:31;;;;;;;22.83;9.17;;;;;;;;;;5114164;28;20197;-77
2023/07/16 03:02:59;;;;;;;24.00;9.03;;;;;;;;;;5114470;28;20312;-76
2023/07/16 03:05:26;;;;;;;25.13;10.13;;;;;;;;;;5114434;28;20193;-77
2023/07/16 03:07:54;;;;;;;23.83;9.30;;;;;;;;;;5114595;28;20285;-77
2023/07/16 03:10:21;;;;;;;24.13;9.37;;;;;;;;;;5114075;28;20260;-77
2023/07/16 03:12:50;;;;;;;20.40;8.33;;;;;;;;;;5114480;28;20194;-77
2023/07/16 03:15:17;;;;;;;25.27;8.90;;;;;;;;;;5116163;27;20998;-76
2023/07/16 03:17:44;;;;;;;23.63;9.23;;;;;;;;;;5135185;27;20201;-77
2023/07/16 03:20:13;;;;;;;23.60;9.07;;;;;;;;;;5134446;27;20221;-76
2023/07/16 03:22:40;;;;;;;25.07;9.03;;;;;;;;;;5134537;27;20197;-76
2023/07/16 03:25:08;;;;;;;24.40;9.60;;;;;;;;;;5134827;27;20288;-77
2023/07/16 03:27:35;;;;;;;23.53;9.27;;;;;;;;;;5135056;27;20288;-76
2023/07/16 03:30:04;;;;;;;25.20;8.83;;;;;;;;;;5134958;27;20697;-77
2023/07/16 03:32:31;;;;;;;24.67;9.37;;;;;;;;;;5134475;27;20678;-76
2023/07/16 03:34:58;;;;;;;28.13;9.57;;;;;;;;;;5134694;27;20280;-77
2023/07/16 03:37:25;;;;;;;21.23;9.07;;;;;;;;;;5134325;27;20257;-77
2023/07/16 03:39:52;;;;;;;28.20;10.07;;;;;;;;;;5134177;27;20197;-76
2023/07/16 03:42:22;;;;;;;26.57;9.30;;;;;;;;;;5134166;27;20293;-77
2023/07/16 03:44:49;;;;;;;21.97;8.93;;;;;;;;;;5134197;27;20304;-78
2023/07/16 03:47:17;;;;;;;22.57;8.93;;;;;;;;;;5133988;27;20738;-78
2023/07/16 03:49:44;;;;;;;28.17;9.93;;;;;;;;;;5133722;27;20259;-75
2023/07/16 03:52:12;;;;;;;25.60;9.70;;;;;;;;;;5133404;27;20271;-77
2023/07/16 03:54:39;;;;;;;21.43;9.47;;;;;;;;;;5133549;27;20285;-77
2023/07/16 03:57:06;;;;;;;20.70;8.93;;;;;;;;;;5134359;27;20193;-77
2023/07/16 03:59:33;;;;;;;27.73;9.03;;;;;;;;;;5133857;27;20744;-76
2023/07/16 04:02:01;;;;;;;22.40;9.37;;;;;;;;;;5133833;27;20714;-78
2023/07/16 04:04:29;;;;;;;23.50;9.10;;;;;;;;;;5134373;27;20205;-77
2023/07/16 04:06:57;;;;;;;24.00;8.57;;;;;;;;;;5133995;27;20314;-76
2023/07/16 04:09:24;;;;;;;26.33;9.57;;;;;;;;;;5133592;27;20193;-76
2023/07/16 04:11:51;;;;;;;25.97;9.03;;;;;;;;;;5133702;27;20300;-77
2023/07/16 04:14:18;;;;;;;24.83;8.73;;;;;;;;;;5133967;27;20748;-77
2023/07/16 04:16:46;;;;;;;20.07;8.50;;;;;;;;;;5133590;27;20732;-77
2023/07/16 04:19:13;;;;;;;27.30;8.80;;;;;;;;;;5134023;27;20196;-78
2023/07/16 04:21:41;;;;;;;22.07;8.90;;;;;;;;;;5134188;27;20197;-76
2023/07/16 04:24:08;;;;;;;21.93;8.37;;;;;;;;;;5133043;27;20280;-76
2023/07/16 04:26:36;;;;;;;24.10;8.50;;;;;;;;;;5133605;27;20287;-76
2023/07/16 04:29:03;;;;;;;24.60;8.93;;;;;;;;;;5133814;27;20239;-78
2023/07/16 04:31:30;;;;;;;20.60;8.80;;;;;;;;;;5133204;27;20256;-78
2023/07/16 04:33:57;;;;;;;25.40;8.97;;;;;;;;;;5133790;27;20296;-77
2023/07/16 04:36:24;;;;;;;25.87;7.97;;;;;;;;;;5133015;27;20244;-77
2023/07/16 04:38:53;;;;;;;24.17;8.00;;;;;;;;;;5132931;27;20288;-77
2023/07/16 04:41:20;;;;;;;19.63;7.77;;;;;;;;;;5133394;27;20196;-77
2023/07/16 04:43:47;;;;;;;24.00;8.23;;;;;;;;;;5132947;27;20283;-76
2023/07/16 04:46:16;;;;;;;25.03;7.77;;;;;;;;;;5133378;27;20228;-77
2023/07/16 04:48:43;;;;;;;18.90;8.03;;;;;;;;;;5133453;27;20245;-76
2023/07/16 04:51:10;;;;;;;25.67;8.43;;;;;;;;;;5132640;27;20233;-77
2023/07/16 04:53:37;;;;;;;23.37;7.43;;;;;;;;;;5132684;27;20292;-77
2023/07/16 04:56:10;;;;;;;27.70;7.67;;;;;;;;;;5132648;27;20288;-76
2023/07/16 04:58:37;;;;;;;24.60;7.80;;;;;;;;;;5133325;27;20200;-77
2023/07/16 05:01:04;;;;;;;21.37;7.47;;;;;;;;;;5133206;27;20209;-77
2023/07/16 05:03:32;;;;;;;22.80;8.40;;;;;;;;;;5132613;27;20212;-77
2023/07/16 05:05:59;;;;;;;22.03;7.73;;;;;;;;;;5132897;27;20238;-76
2023/07/16 05:08:26;;;;;;;16.07;7.30;;;;;;;;;;5132380;27;20283;-76
2023/07/16 05:10:53;;;;;;;21.70;7.77;;;;;;;;;;5132655;27;20769;-77
2023/07/16 05:13:22;;;;;;;25.03;8.00;;;;;;;;;;5132407;27;20296;-76
2023/07/16 05:15:49;;;;;;;21.67;8.00;;;;;;;;;;5132679;27;20283;-77
2023/07/16 05:18:17;;;;;;;27.40;9.00;;;;;;;;;;5132318;27;20301;-77
2023/07/16 05:20:44;;;;;;;23.73;8.43;;;;;;;;;;5131960;27;20194;-77
2023/07/16 05:23:12;;;;;;;24.27;7.60;;;;;;;;;;5132625;27;20291;-77
2023/07/16 05:25:39;;;;;;;25.20;8.40;;;;;;;;;;5132620;27;20193;-77
2023/07/16 05:28:07;;;;;;;21.50;8.10;;;;;;;;;;5132182;27;20189;-77
2023/07/16 05:30:35;;;;;;;22.57;8.13;;;;;;;;;;5132538;27;20303;-77
2023/07/16 05:33:02;;;;;;;21.67;8.57;;;;;;;;;;5132177;27;20292;-77
2023/07/16 05:35:30;;;;;;;23.77;8.03;;;;;;;;;;5131679;27;20287;-77
2023/07/16 05:37:57;;;;;;;23.57;9.23;;;;;;;;;;5132414;27;20293;-76
2023/07/16 05:40:24;;;;;;;19.43;8.47;;;;;;;;;;5132343;27;20200;-76
2023/07/16 05:42:51;;;;;;;21.13;8.00;;;;;;;;;;5132616;27;20201;-77
2023/07/16 05:45:18;;;;;;;21.10;8.33;;;;;;;;;;5132495;27;20224;-77
2023/07/16 05:47:47;;;;;;;20.17;8.23;;;;;;;;;;5132427;27;20288;-76
2023/07/16 05:50:14;;;;;;;20.17;7.87;;;;;;;;;;5131629;27;20224;-76
2023/07/16 05:52:41;;;;;;;23.90;8.27;;;;;;;;;;5132396;27;20301;-77
2023/07/16 05:55:09;;;;;;;20.37;7.93;;;;;;;;;;5132118;27;20189;-77
2023/07/16 05:57:36;;;;;;;24.35;8.30;;;;;;;;;;5132224;27;20654;-76
2023/07/16 06:00:04;;;;;;;20.33;8.85;;;;;;;;;;5132240;27;20611;-77
2023/07/16 06:02:31;;;;;;;20.27;7.77;;;;;;;;;;5131887;27;20193;-77
2023/07/16 06:05:00;;;;;;;23.05;8.18;;;;;;;;;;5131833;27;20283;-78
2023/07/16 06:07:27;;;;;;;24.10;8.65;;;;;;;;;;5131812;27;20292;-77
2023/07/16 06:09:54;;;;;;;23.00;8.75;;;;;;;;;;5132299;27;20204;-77
2023/07/16 06:12:21;;;;;;;16.17;8.20;;;;;;;;;;5131885;27;20249;-77
2023/07/16 06:14:49;;;;;;;18.42;7.82;;;;;;;;;;5134224;27;20276;-77
2023/07/16 06:17:16;;;;;;;21.13;8.43;;;;;;;;;;5135834;27;20223;-76
2023/07/16 06:19:43;;;;;;;19.60;7.85;;;;;;;;;;5136002;27;20299;-77
2023/07/16 06:22:11;;;;;;;19.73;8.43;;;;;;;;;;5135995;27;20284;-78
2023/07/16 06:24:39;;;;;;;16.52;8.30;;;;;;;;;;5135865;27;20293;-77
2023/07/16 06:27:06;;;;;;;17.42;8.43;;;;;;;;;;5135622;27;20283;-77
2023/07/16 06:29:33;;;;;;;19.45;8.30;;;;;;;;;;5135838;27;20287;-77
2023/07/16 06:32:00;;;;;;;20.15;8.70;;;;;;;;;;5135701;27;20316;-78
2023/07/16 06:34:28;;;;;;;20.05;9.18;;;;;;;;;;5135387;27;20287;-78
2023/07/16 06:36:55;;;;;;;15.98;8.68;;;;;;;;;;5135666;27;20220;-77
2023/07/16 06:39:24;;;;;;;24.80;9.60;;;;;;;;;;5135537;27;20288;-78
2023/07/16 06:41:51;;;;;;;23.20;9.45;;;;;;;;;;5135618;27;20291;-78
2023/07/16 06:44:18;;;;;;;21.55;9.27;;;;;;;;;;5135379;27;20195;-77
2023/07/16 06:46:45;;;;;;;18.60;9.05;;;;;;;;;;5135951;27;20204;-77
2023/07/16 06:49:12;;;;;;;21.20;9.07;;;;;;;;;;5134700;27;20285;-77
2023/07/16 06:51:41;;;;;;;19.08;9.00;;;;;;;;;;5134730;27;20320;-77
2023/07/16 06:54:09;;;;;;;24.83;9.43;;;;;;;;;;5135306;27;20201;-77
2023/07/16 06:56:37;;;;;;;18.30;8.73;;;;;;;;;;5135604;27;20661;-77
2023/07/16 06:59:04;;;;;;;20.05;8.77;;;;;;;;;;5135349;27;20225;-77
2023/07/16 07:01:32;;;;;;;15.75;8.57;;;;;;;;;;5135365;27;20221;-78
2023/07/16 07:03:59;;;;;;;20.10;8.73;;;;;;;;;;5135201;27;20288;-78
2023/07/16 07:06:26;;;;;;;17.85;8.23;;;;;;;;;;5135257;27;20292;-77
2023/07/16 07:08:53;;;;;;;17.13;8.45;;;;;;;;;;5135256;27;20295;-78
2023/07/16 07:11:21;;;;;;;18.88;8.73;;;;;;;;;;5134880;27;20311;-77
2023/07/16 07:13:50;;;;;;;18.17;8.02;;;;;;;;;;5135372;27;20240;-78
2023/07/16 07:16:17;;;;;;;16.50;8.20;;;;;;;;;;5135294;27;20208;-77
2023/07/16 07:18:44;;;;;;;11.18;7.18;;;;;;;;;;5134346;27;20560;-77
2023/07/16 07:21:11;;;;;;;13.65;7.45;;;;;;;;;;5134543;27;20882;-78
2023/07/16 07:23:39;;;;;;;15.43;7.43;;;;;;;;;;5134942;27;20558;-78
2023/07/16 07:26:06;;;;;;;16.65;7.55;;;;;;;;;;5134597;27;20197;-78
2023/07/16 07:28:33;;;;;;;13.80;6.57;;;;;;;;;;5134694;27;20221;-78
2023/07/16 07:31:02;;;;;;;14.30;6.65;;;;;;;;;;5134416;27;20231;-77
2023/07/16 07:33:29;;;;;;;15.48;7.30;;;;;;;;;;5133940;27;20676;-76
2023/07/16 07:35:58;;;;;;;15.15;7.10;;;;;;;;;;5134543;27;20189;-77
2023/07/16 07:38:25;;;;;;;17.15;6.97;;;;;;;;;;5134262;27;20661;-77
2023/07/16 07:40:52;;;;;;;14.60;6.28;;;;;;;;;;5134482;27;20284;-77
2023/07/16 07:43:19;;;;;;;14.65;6.50;;;;;;;;;;5134101;27;20562;-77
2023/07/16 07:45:46;;;;;;;12.88;6.22;;;;;;;;;;5134046;27;20279;-77
2023/07/16 07:48:15;;;;;;;13.50;5.80;;;;;;;;;;5134444;27;20197;-77
2023/07/16 07:50:42;;;;;;;13.05;5.70;;;;;;;;;;5133898;27;20257;-77
2023/07/16 07:53:09;;;;;;;14.35;6.10;;;;;;;;;;5133920;27;20657;-78
2023/07/16 07:55:36;;;;;;;13.85;5.63;;;;;;;;;;5134144;27;20624;-77
2023/07/16 07:58:04;;;;;;;11.40;5.97;;;;;;;;;;5133888;27;20276;-77
2023/07/16 08:00:31;;;;;;;13.88;5.18;;;;;;;;;;5134391;27;20279;-77
2023/07/16 08:02:58;;;;;;;13.90;5.18;;;;;;;;;;5134103;27;20197;-78
2023/07/16 08:05:26;;;;;;;10.75;5.28;;;;;;;;;;5133926;27;20211;-76
2023/07/16 08:07:55;;;;;;;10.63;5.13;;;;;;;;;;5133697;27;20199;-77
2023/07/16 08:10:22;;;;;;;13.73;6.20;;;;;;;;;;5134125;27;20222;-78
2023/07/16 08:12:50;;;;;;;12.80;6.05;;;;;;;;;;5133762;27;20231;-77
2023/07/16 08:15:17;;;;;;;12.27;6.13;;;;;;;;;;5132963;27;20733;-76
2023/07/16 08:17:45;;;;;;;11.48;5.75;;;;;;;;;;5133870;27;20229;-76
2023/07/16 08:20:13;;;;;;;11.07;5.80;;;;;;;;;;5133704;27;20220;-77
2023/07/16 08:22:41;;;;;;;8.18;5.10;;;;;;;;;;5133140;27;20686;-75
2023/07/16 08:25:09;;;;;;;12.07;5.30;;;;;;;;;;5133129;27;20239;-78
2023/07/16 08:27:36;;;;;;;12.40;5.57;;;;;;;;;;5133447;27;20200;-76
2023/07/16 08:30:03;;;;;;;7.97;4.60;;;;;;;;;;5133140;27;20225;-78
2023/07/16 08:32:31;;;;;;;11.77;4.97;;;;;;;;;;5133205;27;20815;-78
2023/07/16 08:34:58;;;;;;;9.40;4.57;;;;;;;;;;5132126;27;20304;-78
2023/07/16 08:37:25;;;;;;;12.00;4.55;;;;;;;;;;5132437;27;20665;-77
2023/07/16 08:39:54;;;;;;;9.07;4.43;;;;;;;;;;5133273;27;20306;-77
2023/07/16 08:42:22;;;;;;;10.18;4.57;;;;;;;;;;5133251;27;20278;-77
2023/07/16 08:44:50;;;;;;;9.50;4.63;;;;;;;;;;5132603;27;20665;-78
2023/07/16 08:47:17;;;;;;;7.68;4.50;;;;;;;;;;5132929;27;20670;-78
2023/07/16 08:49:52;;;;;;;12.65;4.43;;;;;;;;;;5132954;27;20224;-77
2023/07/16 08:52:20;;;;;;;10.52;4.60;;;;;;;;;;5132459;27;20244;-78
2023/07/16 08:54:47;;;;;;;7.93;4.22;;;;;;;;;;5132839;27;20197;-77
2023/07/16 08:57:16;;;;;;;11.57;4.90;;;;;;;;;;5125389;27;20193;-78
2023/07/16 08:59:44;;;;;;;11.25;5.00;;;;;;;;;;5112028;27;20209;-78
2023/07/16 09:02:11;;;;;;;11.73;5.28;;;;;;;;;;5112153;28;20305;-78
2023/07/16 09:04:38;;;;;;;15.10;5.18;;;;;;;;;;5111918;27;20225;-79
2023/07/16 09:07:06;;;;;;;9.73;5.10;;;;;;;;;;5123054;27;20205;-77
2023/07/16 09:09:33;;;;;;;11.20;5.22;;;;;;;;;;5111978;28;20239;-78
2023/07/16 09:12:00;;;;;;;8.25;4.40;;;;;;;;;;5112262;28;20225;-78
2023/07/16 09:14:29;;;;;;;8.65;4.85;;;;;;;;;;5111162;28;20193;-79
2023/07/16 09:16:56;;;;;;;11.18;4.78;;;;;;;;;;5131620;27;20296;-78
2023/07/16 09:19:23;;;;;;;10.55;5.07;;;;;;;;;;5149865;27;20227;-78
2023/07/16 09:21:51;;;;;;;10.10;4.75;;;;;;;;;;5143563;27;20283;-78
2023/07/16 09:24:18;;;;;;;12.00;4.63;;;;;;;;;;5135421;27;20188;-79
2023/07/16 09:26:49;;;;;;;7.05;4.30;;;;;;;;;;5132224;27;20257;-79
2023/07/16 09:29:16;;;;;;;9.75;5.10;;;;;;;;;;5119532;27;20201;-78
2023/07/16 09:31:55;;;;;;;9.93;4.97;;;;;;;;;;5117237;27;20264;-79
2023/07/16 09:34:22;;;;;;;9.35;4.50;;;;;;;;;;5133643;27;20352;-79
2023/07/16 09:36:49;;;;;;;9.13;4.85;;;;;;;;;;5120625;27;20201;-78
2023/07/16 09:39:18;;;;;;;8.88;4.65;;;;;;;;;;5122526;27;20212;-80
2023/07/16 09:41:46;;;;;;;11.52;5.82;;;;;;;;;;5110865;28;20281;-80
2023/07/16 09:44:13;;;;;;;9.88;5.25;;;;;;;;;;5118350;28;20194;-79
2023/07/16 09:46:40;;;;;;;13.27;5.60;;;;;;;;;;5111225;28;20232;-79
2023/07/16 09:49:09;;;;;;;10.38;5.53;;;;;;;;;;5112432;28;20240;-78
2023/07/16 09:51:37;;;;;;;11.77;5.88;;;;;;;;;;5134957;27;20228;-78
2023/07/16 09:54:05;;;;;;;13.90;5.38;;;;;;;;;;5135428;27;20246;-78
2023/07/16 09:56:35;;;;;;;12.15;6.22;;;;;;;;;;5134783;27;20869;-77
2023/07/16 09:59:03;;;;;;;11.98;5.70;;;;;;;;;;5136512;27;20223;-79
2023/07/16 10:01:30;;;;;;;13.43;6.47;;;;;;;;;;5137209;27;20229;-79
2023/07/16 10:03:59;;;;;;;13.02;6.25;;;;;;;;;;5154052;27;20211;-78
2023/07/16 10:06:27;;;;;;;13.50;6.20;;;;;;;;;;5144507;27;20200;-78
2023/07/16 10:08:54;;;;;;;13.27;8.65;;;;;;;;;;5144133;27;20672;-79
2023/07/16 10:11:22;;;;;;;11.75;6.97;;;;;;;;;;5143973;27;20227;-79
2023/07/16 10:13:52;;;;;;;13.07;6.20;;;;;;;;;;5139171;27;20258;-79
2023/07/16 10:16:23;;;;;;;12.18;6.15;;;;;;;;;;5130617;27;20205;-79
2023/07/16 10:18:53;;;;;;;10.20;5.57;;;;;;;;;;5134399;27;20560;-79
2023/07/16 10:21:24;;;;;;;13.13;5.90;;;;;;;;;;5127156;27;20280;-78
2023/07/16 10:23:58;;;;;;;12.55;6.45;;;;;;;;;;5133535;27;20193;-79
2023/07/16 10:26:28;;;;;;;11.20;5.80;;;;;;;;;;5133413;27;20284;-79
2023/07/16 10:28:55;;;;;;;11.30;5.85;;;;;;;;;;5135506;27;20204;-78
2023/07/16 10:31:24;;;;;;;10.55;5.53;;;;;;;;;;5133116;27;20342;-78
2023/07/16 10:34:01;;;;;;;8.90;5.55;;;;;;;;;;5130843;27;20217;-79
2023/07/16 10:36:28;;;;;;;10.25;5.25;;;;;;;;;;5141323;27;20283;-80
2023/07/16 10:39:03;;;;;;;7.20;4.63;;;;;;;;;;5147233;27;20197;-80
2023/07/16 10:41:30;;;;;;;7.97;4.05;;;;;;;;;;5132500;27;20205;-79
2023/07/16 10:43:58;;;;;;;9.13;4.70;;;;;;;;;;5128493;27;20220;-78
2023/07/16 10:46:25;;;;;;;9.07;4.72;;;;;;;;;;5114348;28;20201;-78
2023/07/16 10:48:53;;;;;;;10.18;5.13;;;;;;;;;;5114275;28;20767;-79
2023/07/16 10:51:26;;;;;;;12.02;5.22;;;;;;;;;;5113659;28;20257;-79
2023/07/16 10:53:56;;;;;;;11.23;4.78;;;;;;;;;;5114151;28;20241;-78
2023/07/16 10:56:25;;;;;;;9.38;4.80;;;;;;;;;;5115039;27;20299;-80
2023/07/16 10:58:52;;;;;;;10.07;5.28;;;;;;;;;;5116973;27;20878;-80
2023/07/16 11:01:20;;;;;;;9.27;4.47;;;;;;;;;;5128289;27;20288;-79
2023/07/16 11:03:47;;;;;;;7.90;4.05;;;;;;;;;;5127961;27;20229;-79
2023/07/16 11:06:15;;;;;;;7.30;4.50;;;;;;;;;;5129421;27;20193;-79
2023/07/16 11:08:42;;;;;;;8.55;4.40;;;;;;;;;;5128772;27;20279;-78
2023/07/16 11:11:10;;;;;;;11.88;5.55;;;;;;;;;;5128012;27;20233;-79
2023/07/16 11:13:38;;;;;;;13.32;6.13;;;;;;;;;;5127306;27;20323;-79
2023/07/16 11:16:09;;;;;;;7.68;5.10;;;;;;;;;;5129915;27;20217;-79
2023/07/16 11:18:36;;;;;;;10.75;7.28;;;;;;;;;;5128187;27;20192;-78
2023/07/16 11:21:04;;;;;;;11.63;7.38;;;;;;;;;;5124235;27;20198;-80
2023/07/16 11:23:34;;;;;;;9.27;5.18;;;;;;;;;;5113436;28;20217;-79
2023/07/16 11:26:03;;;;;;;7.07;4.35;;;;;;;;;;5113974;28;20276;-78
2023/07/16 11:28:38;;;;;;;7.15;4.20;;;;;;;;;;5114187;28;20533;-78
2023/07/16 11:31:12;;;;;;;7.38;4.13;;;;;;;;;;5114137;28;20194;-77
2023/07/16 11:33:39;;;;;;;9.88;3.75;;;;;;;;;;5113764;28;20235;-78
2023/07/16 11:36:06;;;;;;;6.75;3.42;;;;;;;;;;5113817;28;20190;-78
2023/07/16 11:38:37;;;;;;;5.18;3.15;;;;;;;;;;5113371;28;20274;-79
2023/07/16 11:41:05;;;;;;;6.95;3.38;;;;;;;;;;5113177;28;20632;-78
2023/07/16 11:43:36;;;;;;;5.05;2.90;;;;;;;;;;5118726;27;20215;-77
2023/07/16 11:46:05;;;;;;;4.55;2.50;;;;;;;;;;5127110;27;20206;-77
2023/07/16 11:48:32;;;;;;;4.57;2.42;;;;;;;;;;5134098;27;20237;-78
2023/07/16 11:50:59;;;;;;;6.30;2.47;;;;;;;;;;5133453;27;20252;-78
2023/07/16 11:53:26;;;;;;;5.15;2.35;;;;;;;;;;5133720;27;20625;-78
2023/07/16 11:55:53;;;;;;;4.45;2.50;;;;;;;;;;5133931;27;20224;-78
2023/07/16 11:58:21;;;;;;;3.20;2.08;;;;;;;;;;5133299;27;20755;-78
2023/07/16 12:00:48;;;;;;;3.85;2.00;;;;;;;;;;5133747;27;20197;-78
2023/07/16 12:03:17;;;;;;;3.72;1.90;;;;;;;;;;5134265;27;20608;-77
2023/07/16 12:05:44;;;;;;;4.03;2.05;;;;;;;;;;5133582;27;20546;-78
2023/07/16 12:08:14;;;;;;;5.88;1.88;;;;;;;;;;5133036;27;20284;-78
2023/07/16 12:10:41;;;;;;;7.20;1.70;;;;;;;;;;5133550;27;20677;-79
2023/07/16 12:13:08;;;;;;;2.75;1.52;;;;;;;;;;5132672;27;20319;-79
2023/07/16 12:15:35;;;;;;;3.53;1.52;;;;;;;;;;5133510;27;20862;-78
2023/07/16 12:18:02;;;;;;;5.97;2.08;;;;;;;;;;5133524;27;20280;-78
2023/07/16 12:20:31;;;;;;;5.75;1.77;;;;;;;;;;5133402;27;20230;-79
2023/07/16 12:22:58;;;;;;;3.30;1.65;;;;;;;;;;5133183;27;20196;-80
2023/07/16 12:25:25;;;;;;;3.30;1.27;;;;;;;;;;5132810;27;20292;-79
2023/07/16 12:27:53;;;;;;;5.97;1.40;;;;;;;;;;5133107;27;20292;-78
2023/07/16 12:30:20;;;;;;;4.15;1.67;;;;;;;;;;5133693;27;20197;-77
2023/07/16 12:32:47;;;;;;;2.70;1.40;;;;;;;;;;5133477;27;20308;-78
2023/07/16 12:35:15;;;;;;;3.28;1.40;;;;;;;;;;5132750;27;20717;-78
2023/07/16 12:37:43;;;;;;;2.15;1.30;;;;;;;;;;5133105;27;20288;-78
2023/07/16 12:40:11;;;;;;;3.95;1.48;;;;;;;;;;5133196;27;20792;-77
2023/07/16 12:42:39;;;;;;;3.50;1.40;;;;;;;;;;5133122;27;20573;-77
2023/07/16 12:45:07;;;;;;;4.10;1.40;;;;;;;;;;5130435;27;20248;-79
2023/07/16 12:47:35;;;;;;;4.35;1.40;;;;;;;;;;5131032;27;20205;-80
2023/07/16 12:50:02;;;;;;;2.40;1.00;;;;;;;;;;5128837;27;20201;-78
2023/07/16 12:52:29;;;;;;;3.05;1.60;;;;;;;;;;5119657;27;20332;-79
2023/07/16 12:54:58;;;;;;;3.47;1.42;;;;;;;;;;5129686;27;20319;-79
2023/07/16 12:57:25;;;;;;;3.25;1.17;;;;;;;;;;5132086;27;20287;-80
2023/07/16 12:59:52;;;;;;;1.60;0.98;;;;;;;;;;5132498;27;20287;-79
2023/07/16 13:02:19;;;;;;;2.28;1.33;;;;;;;;;;5132274;27;20270;-79
2023/07/16 13:04:53;;;;;;;3.28;1.30;;;;;;;;;;5129985;27;20240;-80
2023/07/16 13:07:23;;;;;;;2.45;1.08;;;;;;;;;;5129913;27;20241;-79
2023/07/16 13:09:50;;;;;;;2.97;1.00;;;;;;;;;;5132305;27;20189;-79
2023/07/16 13:12:22;;;;;;;3.33;1.10;;;;;;;;;;5126431;27;20193;-79
2023/07/16 13:14:49;;;;;;;2.20;0.98;;;;;;;;;;5128125;27;20193;-79
2023/07/16 13:17:18;;;;;;;2.00;1.02;;;;;;;;;;5128912;27;20254;-79
2023/07/16 13:19:46;;;;;;;2.63;1.20;;;;;;;;;;5132012;27;20196;-79
2023/07/16 13:22:14;;;;;;;2.35;1.00;;;;;;;;;;5126636;27;20194;-80
2023/07/16 13:24:41;;;;;;;3.42;0.95;;;;;;;;;;5128749;27;20430;-79
2023/07/16 13:27:11;;;;;;;3.35;1.35;;;;;;;;;;5126658;27;20209;-79
2023/07/16 13:29:39;;;;;;;2.88;0.95;;;;;;;;;;5131240;27;20580;-79
2023/07/16 13:32:07;;;;;;;2.08;0.98;;;;;;;;;;5128998;27;20736;-79
2023/07/16 13:34:34;;;;;;;2.35;1.00;;;;;;;;;;5131677;27;20300;-79
2023/07/16 13:37:01;;;;;;;3.45;1.00;;;;;;;;;;5132143;27;20283;-78
2023/07/16 13:39:28;;;;;;;2.85;0.88;;;;;;;;;;5131902;27;20186;-79
2023/07/16 13:41:56;;;;;;;3.45;1.00;;;;;;;;;;5132272;27;20296;-79
2023/07/16 13:44:23;;;;;;;2.72;1.00;;;;;;;;;;5132120;28;20315;-79
2023/07/16 13:46:52;;;;;;;1.95;1.10;;;;;;;;;;5130590;27;20221;-79
2023/07/16 13:49:19;;;;;;;2.35;1.00;;;;;;;;;;5131829;27;20276;-79
2023/07/16 13:51:46;;;;;;;3.80;1.10;;;;;;;;;;5132526;27;20323;-78
2023/07/16 13:54:14;;;;;;;2.25;0.80;;;;;;;;;;5132157;27;20220;-79
2023/07/16 13:56:41;;;;;;;2.45;1.00;;;;;;;;;;5131755;27;20228;-79
2023/07/16 13:59:08;;;;;;;1.75;0.88;;;;;;;;;;5132082;27;20284;-79
2023/07/16 14:01:39;;;;;;;1.92;0.82;;;;;;;;;;5132003;27;20721;-79
2023/07/16 14:04:08;;;;;;;2.10;1.00;;;;;;;;;;5127676;27;20678;-79
2023/07/16 14:06:35;;;;;;;3.55;1.00;;;;;;;;;;5137448;27;20279;-80
2023/07/16 14:09:04;;;;;;;5.35;1.33;;;;;;;;;;5140801;27;20216;-80
2023/07/16 14:11:31;;;;;;;2.03;1.10;;;;;;;;;;5139057;27;20201;-78
2023/07/16 14:13:59;;;;;;;3.45;1.45;;;;;;;;;;5148034;27;20266;-77
2023/07/16 14:16:26;;;;;;;3.40;1.33;;;;;;;;;;5126622;27;20228;-77
2023/07/16 14:18:54;;;;;;;3.15;1.40;;;;;;;;;;5144011;27;20224;-78
2023/07/16 14:21:25;;;;;;;4.20;1.23;;;;;;;;;;5131926;28;20193;-78
2023/07/16 14:23:55;;;;;;;3.45;1.52;;;;;;;;;;5127841;27;20250;-78
2023/07/16 14:26:22;;;;;;;4.35;1.70;;;;;;;;;;5137282;27;20201;-78
2023/07/16 14:28:49;;;;;;;3.53;1.63;;;;;;;;;;5148159;27;20204;-78
2023/07/16 14:31:19;;;;;;;4.30;1.75;;;;;;;;;;5152108;27;20220;-79
2023/07/16 14:33:46;;;;;;;5.47;1.88;;;;;;;;;;5138715;27;20229;-76